createdAt,value
2023-03-18T00:01:29.384Z,24.90
2023-03-18T00:03:58.658Z,24.90
2023-03-18T00:06:29.234Z,24.90
2023-03-18T00:11:46.014Z,24.90
2023-03-18T00:14:17.802Z,24.90
2023-03-18T00:16:53.358Z,24.90
2023-03-18T00:24:58.889Z,25.00
2023-03-18T00:27:34.900Z,25.10
2023-03-18T00:30:09.157Z,25.20
2023-03-18T00:32:59.167Z,25.20
2023-03-18T00:35:31.567Z,25.30
2023-03-18T00:38:03.657Z,25.30
2023-03-18T00:40:44.910Z,25.40
2023-03-18T00:43:17.448Z,25.50
2023-03-18T00:45:59.675Z,25.50
2023-03-18T00:48:36.652Z,25.60
2023-03-18T00:51:19.888Z,25.60
2023-03-18T00:53:57.384Z,25.70
2023-03-18T00:56:32.743Z,25.80
2023-03-18T00:59:13.949Z,25.90
2023-03-18T01:01:49.662Z,26.00
2023-03-18T01:04:24.230Z,26.10
2023-03-18T01:06:53.831Z,26.20
2023-03-18T01:09:25.486Z,26.30
2023-03-18T01:11:54.937Z,26.40
2023-03-18T01:14:24.568Z,26.40
2023-03-18T01:16:54.461Z,26.60
2023-03-18T01:19:29.265Z,26.60
2023-03-18T01:24:51.685Z,26.80
2023-03-18T01:30:23.153Z,27.00
2023-03-18T01:32:54.926Z,27.10
2023-03-18T01:35:29.121Z,27.20
2023-03-18T01:38:04.795Z,27.30
2023-03-18T01:40:42.568Z,27.40
2023-03-18T01:43:23.539Z,27.50
2023-03-18T01:46:00.784Z,27.50
2023-03-18T01:54:10.499Z,27.80
2023-03-18T01:56:46.780Z,27.80
2023-03-18T01:59:23.285Z,27.90
2023-03-18T02:02:21.385Z,28.00
2023-03-18T02:04:58.706Z,28.10
2023-03-18T02:07:33.737Z,28.20
2023-03-18T02:10:24.931Z,28.20
2023-03-18T02:13:09.094Z,28.30
2023-03-18T02:16:06.279Z,28.30
2023-03-18T02:18:53.024Z,28.30
2023-03-18T02:21:45.748Z,28.40
2023-03-18T02:27:42.010Z,28.50
2023-03-18T02:30:33.384Z,28.60
2023-03-18T02:33:10.593Z,28.60
2023-03-18T02:35:49.215Z,28.70
2023-03-18T02:38:18.551Z,28.80
2023-03-18T02:47:05.379Z,28.90
2023-03-18T02:49:44.764Z,28.90
2023-03-18T02:52:28.047Z,29.00
2023-03-18T02:55:13.964Z,29.10
2023-03-18T02:57:43.946Z,29.20
2023-03-18T03:00:21.715Z,29.20
2023-03-18T03:02:54.544Z,29.30
2023-03-18T03:05:23.905Z,29.40
2023-03-18T03:07:54.058Z,29.50
2023-03-18T03:10:30.883Z,29.60
2023-03-18T03:13:05.311Z,29.60
2023-03-18T03:15:38.105Z,29.60
2023-03-18T03:18:11.912Z,29.70
2023-03-18T03:20:42.158Z,29.70
2023-03-18T03:23:22.579Z,29.80
2023-03-18T03:25:52.550Z,29.80
2023-03-18T03:28:31.728Z,29.90
2023-03-18T03:31:02.356Z,30.00
2023-03-18T03:33:51.629Z,30.00
2023-03-18T03:36:26.381Z,30.10
2023-03-18T03:41:50.957Z,30.20
2023-03-18T03:44:20.623Z,30.40
2023-03-18T03:46:49.916Z,30.50
2023-03-18T03:49:19.614Z,30.50
2023-03-18T03:51:49.006Z,30.70
2023-03-18T03:54:20.064Z,30.80
2023-03-18T03:56:51.822Z,30.80
2023-03-18T04:02:22.191Z,31.00
2023-03-18T04:04:54.018Z,31.10
2023-03-18T04:07:37.072Z,31.20
2023-03-18T04:15:58.462Z,31.40
2023-03-18T04:18:29.078Z,31.50
2023-03-18T04:21:09.694Z,31.60
2023-03-18T04:23:40.304Z,31.70
2023-03-18T04:26:10.441Z,31.80
2023-03-18T04:28:52.140Z,31.90
2023-03-18T04:31:38.830Z,32.00
2023-03-18T04:34:21.612Z,32.10
2023-03-18T04:37:11.990Z,32.20
2023-03-18T04:39:48.812Z,32.40
2023-03-18T04:42:32.089Z,32.40
2023-03-18T04:45:14.803Z,32.50
2023-03-18T04:47:48.793Z,32.60
2023-03-18T04:50:20.108Z,32.70
2023-03-18T04:52:49.406Z,32.80
2023-03-18T04:55:21.636Z,32.90
2023-03-18T04:57:51.501Z,33.00
2023-03-18T05:00:23.303Z,33.10
2023-03-18T05:02:52.524Z,33.20
2023-03-18T05:05:22.136Z,33.30
2023-03-18T05:07:51.978Z,33.50
2023-03-18T05:10:25.619Z,33.60
2023-03-18T05:15:41.126Z,33.70
2023-03-18T05:18:13.098Z,33.80
2023-03-18T05:20:46.547Z,34.00
2023-03-18T05:23:18.811Z,34.00
2023-03-18T05:25:51.645Z,34.00
2023-03-18T05:28:22.437Z,34.10
2023-03-18T05:30:51.998Z,34.30
2023-03-18T05:33:23.177Z,34.40
2023-03-18T05:35:52.828Z,34.50
2023-03-18T05:38:22.017Z,34.60
2023-03-18T05:43:43.643Z,34.80
2023-03-18T05:46:16.393Z,34.90
2023-03-18T05:48:46.732Z,34.90
2023-03-18T05:51:30.147Z,35.00
2023-03-18T05:54:09.698Z,35.10
2023-03-18T05:56:52.183Z,35.20
2023-03-18T05:59:29.267Z,35.20
2023-03-18T06:04:51.117Z,35.20
2023-03-18T06:07:21.800Z,35.30
2023-03-18T06:09:54.365Z,35.40
2023-03-18T06:15:14.622Z,35.50
2023-03-18T06:17:44.636Z,35.70
2023-03-18T06:20:15.607Z,35.70
2023-03-18T06:22:50.095Z,35.80
2023-03-18T06:25:24.307Z,35.90
2023-03-18T06:27:54.119Z,36.00
2023-03-18T06:30:23.779Z,36.00
2023-03-18T06:35:48.849Z,36.10
2023-03-18T06:38:35.875Z,36.10
2023-03-18T06:41:17.520Z,36.10
2023-03-18T06:43:49.100Z,36.10
2023-03-18T06:49:10.494Z,36.20
2023-03-18T06:51:39.938Z,36.30
2023-03-18T06:56:55.788Z,36.50
2023-03-18T07:02:19.278Z,36.50
2023-03-18T07:05:14.791Z,36.50
2023-03-18T07:07:52.725Z,36.40
2023-03-18T07:13:28.948Z,36.40
2023-03-18T07:16:07.558Z,36.40
2023-03-18T07:21:28.702Z,36.50
2023-03-18T07:23:57.932Z,36.50
2023-03-18T07:26:27.651Z,36.50
2023-03-18T07:29:01.652Z,36.60
2023-03-18T07:31:31.724Z,36.60
2023-03-18T07:34:00.871Z,36.60
2023-03-18T07:36:29.973Z,36.70
2023-03-18T07:44:43.039Z,36.80
2023-03-18T07:47:16.347Z,36.80
2023-03-18T07:58:02.624Z,36.60
2023-03-18T08:00:34.386Z,36.50
2023-03-18T08:05:54.289Z,36.50
2023-03-18T08:08:24.859Z,36.50
2023-03-18T08:11:01.476Z,36.60
2023-03-18T08:13:30.891Z,36.60
2023-03-18T08:16:00.243Z,36.60
2023-03-18T08:18:29.504Z,36.70
2023-03-18T08:20:58.640Z,36.70
2023-03-18T08:23:27.754Z,36.70
2023-03-18T08:25:56.971Z,36.70
2023-03-18T08:28:28.434Z,36.70
2023-03-18T08:33:51.752Z,36.70
2023-03-18T08:36:43.837Z,36.70
2023-03-18T08:47:40.252Z,36.70
2023-03-18T08:50:15.177Z,36.70
2023-03-18T08:55:44.266Z,36.60
2023-03-18T09:06:28.958Z,36.40
2023-03-18T09:08:59.762Z,36.40
2023-03-18T09:19:56.787Z,36.40
2023-03-18T09:22:29.930Z,36.30
2023-03-18T09:24:59.798Z,36.30
2023-03-18T09:27:29.670Z,36.30
2023-03-18T09:29:59.028Z,36.30
2023-03-18T09:32:28.563Z,36.20
2023-03-18T09:34:57.893Z,36.10
2023-03-18T09:37:31.319Z,36.10
2023-03-18T09:40:00.637Z,36.10
2023-03-18T09:43:05.653Z,36.00
2023-03-18T09:46:20.533Z,36.00
2023-03-18T09:49:16.641Z,35.90
2023-03-18T09:52:18.524Z,35.90
2023-03-18T09:55:29.622Z,35.90
2023-03-18T09:58:04.459Z,35.90
2023-03-18T10:00:38.835Z,35.80
2023-03-18T10:03:45.891Z,35.70
2023-03-18T10:06:24.686Z,35.60
2023-03-18T10:09:24.452Z,35.60
2023-03-18T10:12:08.810Z,35.50
2023-03-18T10:15:22.456Z,35.40
2023-03-18T10:18:36.571Z,35.40
2023-03-18T10:21:41.673Z,35.30
2023-03-18T10:24:50.999Z,35.20
2023-03-18T10:27:58.876Z,35.10
2023-03-18T10:31:07.019Z,35.00
2023-03-18T10:34:08.425Z,34.90
2023-03-18T10:37:01.236Z,34.80
2023-03-18T10:39:58.212Z,34.70
2023-03-18T10:42:35.558Z,34.60
2023-03-18T10:48:50.630Z,34.40
2023-03-18T10:51:42.506Z,34.30
2023-03-18T10:54:41.344Z,34.20
2023-03-18T10:57:17.966Z,34.00
2023-03-18T10:59:48.557Z,33.80
2023-03-18T11:02:36.541Z,33.70
2023-03-18T11:05:29.736Z,33.60
2023-03-18T11:08:09.950Z,33.50
2023-03-18T11:10:54.405Z,33.30
2023-03-18T11:13:27.494Z,33.20
2023-03-18T11:16:06.406Z,33.10
2023-03-18T11:24:38.508Z,32.90
2023-03-18T11:33:31.412Z,32.60
2023-03-18T11:36:19.190Z,32.40
2023-03-18T11:41:54.373Z,32.30
2023-03-18T11:44:43.681Z,32.20
2023-03-18T11:47:28.136Z,32.20
2023-03-18T11:53:10.649Z,32.00
2023-03-18T11:56:11.807Z,32.00
2023-03-18T11:59:22.574Z,32.00
2023-03-18T12:02:20.210Z,31.90
2023-03-18T12:05:39.406Z,31.80
2023-03-18T12:08:37.848Z,31.70
2023-03-18T12:15:01.451Z,31.60
2023-03-18T12:18:15.977Z,31.50
2023-03-18T12:27:24.694Z,31.30
2023-03-18T12:30:37.956Z,31.30
2023-03-18T12:36:39.423Z,31.20
2023-03-18T12:43:10.657Z,31.20
2023-03-18T12:45:56.443Z,31.10
2023-03-18T12:51:32.862Z,31.10
2023-03-18T12:54:24.026Z,31.00
2023-03-18T12:57:05.291Z,31.00
2023-03-18T12:59:57.735Z,31.00
2023-03-18T13:02:53.831Z,31.00
2023-03-18T13:05:50.998Z,31.00
2023-03-18T13:09:17.401Z,31.00
2023-03-18T13:12:16.820Z,31.00
2023-03-18T13:15:04.549Z,30.90
2023-03-18T13:17:46.007Z,30.90
2023-03-18T13:26:48.463Z,30.80
2023-03-18T13:36:59.951Z,30.60
2023-03-18T13:45:54.189Z,30.50
2023-03-18T13:51:28.214Z,30.40
2023-03-18T13:57:33.886Z,30.30
2023-03-18T14:00:38.490Z,30.30
2023-03-18T14:03:35.876Z,30.20
2023-03-18T14:06:27.312Z,30.20
2023-03-18T14:09:08.421Z,30.10
2023-03-18T14:17:55.928Z,30.10
2023-03-18T14:20:43.317Z,30.00
2023-03-18T14:26:48.033Z,30.00
2023-03-18T14:35:44.594Z,30.00
2023-03-18T14:53:52.894Z,29.80
2023-03-18T14:57:04.477Z,29.70
2023-03-18T14:59:45.288Z,29.70
2023-03-18T15:02:45.242Z,29.60
2023-03-18T15:11:11.660Z,29.50
2023-03-18T15:13:44.132Z,29.50
2023-03-18T15:16:20.911Z,29.40
2023-03-18T15:21:57.940Z,29.30
2023-03-18T15:24:29.328Z,29.30
2023-03-18T15:27:16.186Z,29.20
2023-03-18T15:29:56.808Z,29.20
2023-03-18T15:32:52.085Z,29.10
2023-03-18T15:35:29.799Z,29.10
2023-03-18T15:44:31.667Z,29.00
2023-03-18T15:53:32.660Z,29.00
2023-03-18T15:56:40.902Z,29.00
2023-03-18T15:59:18.049Z,29.00
2023-03-18T16:13:42.690Z,29.00
2023-03-18T16:22:42.619Z,28.90
2023-03-18T16:28:03.370Z,28.90
2023-03-18T16:30:36.942Z,28.90
2023-03-18T16:33:18.861Z,28.90
2023-03-18T16:36:01.291Z,28.90
2023-03-18T16:38:32.082Z,28.90
2023-03-18T16:41:02.600Z,28.90
2023-03-18T16:43:35.789Z,28.90
2023-03-18T16:46:06.608Z,28.90
2023-03-18T16:48:36.132Z,28.90
2023-03-18T16:51:05.563Z,28.80
2023-03-18T16:53:35.319Z,28.80
2023-03-18T17:02:16.108Z,28.70
2023-03-18T17:04:48.353Z,28.70
2023-03-18T17:07:17.614Z,28.60
2023-03-18T17:09:46.881Z,28.60
2023-03-18T17:17:51.614Z,28.60
2023-03-18T17:28:52.820Z,28.50
2023-03-18T17:34:23.379Z,28.50
2023-03-18T17:37:04.317Z,28.60
2023-03-18T17:39:42.574Z,28.50
2023-03-18T17:46:32.296Z,28.50
2023-03-18T17:49:06.808Z,28.50
2023-03-18T17:57:17.203Z,28.50
2023-03-18T17:59:50.430Z,28.50
2023-03-18T18:02:32.731Z,28.50
2023-03-18T18:05:02.644Z,28.50
2023-03-18T18:07:31.756Z,28.50
2023-03-18T18:10:01.825Z,28.50
2023-03-18T18:12:31.187Z,28.50
2023-03-18T18:15:00.646Z,28.50
2023-03-18T18:17:29.797Z,28.50
2023-03-18T18:19:59.722Z,28.50
2023-03-18T18:22:28.946Z,28.50
2023-03-18T18:25:01.003Z,28.50
2023-03-18T18:27:42.750Z,28.50
2023-03-18T18:33:06.563Z,28.50
2023-03-18T18:35:47.951Z,28.50
2023-03-18T18:38:22.153Z,28.50
2023-03-18T18:43:53.988Z,28.50
2023-03-18T18:46:24.501Z,28.50
2023-03-18T18:48:54.740Z,28.50
2023-03-18T18:51:26.336Z,28.50
2023-03-18T18:53:56.874Z,28.50
2023-03-18T18:56:40.002Z,28.50
2023-03-18T18:59:28.583Z,28.50
2023-03-18T19:01:58.328Z,28.50
2023-03-18T19:04:28.371Z,28.50
2023-03-18T19:12:50.331Z,28.50
2023-03-18T19:15:30.340Z,28.50
2023-03-18T19:18:01.355Z,28.50
2023-03-18T19:23:46.658Z,28.50
2023-03-18T19:29:14.449Z,28.50
2023-03-18T19:34:50.627Z,28.40
2023-03-18T19:43:22.640Z,28.30
2023-03-18T19:45:52.334Z,28.30
2023-03-18T19:48:25.591Z,28.20
2023-03-18T19:50:57.480Z,28.10
2023-03-18T19:53:29.067Z,28.10
2023-03-18T19:55:58.501Z,28.00
2023-03-18T19:58:29.023Z,27.90
2023-03-18T20:01:02.004Z,27.90
2023-03-18T20:06:23.492Z,27.80
2023-03-18T20:09:03.670Z,27.80
2023-03-18T20:11:33.351Z,27.80
2023-03-18T20:14:10.315Z,27.80
2023-03-18T20:19:25.242Z,27.80
2023-03-18T20:22:00.583Z,27.80
2023-03-18T20:24:44.851Z,27.80
2023-03-18T20:27:34.490Z,27.80
2023-03-18T20:33:16.742Z,27.80
2023-03-18T20:36:03.072Z,27.80
2023-03-18T20:38:49.934Z,27.80
2023-03-18T20:41:25.948Z,27.80
2023-03-18T20:44:06.593Z,27.80
2023-03-18T20:54:46.031Z,27.80
2023-03-18T21:00:03.830Z,27.80
2023-03-18T21:02:37.457Z,27.80
2023-03-18T21:05:07.037Z,27.70
2023-03-18T21:07:36.254Z,27.70
2023-03-18T21:10:07.812Z,27.60
2023-03-18T21:12:40.795Z,27.50
2023-03-18T21:15:26.843Z,27.50
2023-03-18T21:17:59.832Z,27.40
2023-03-18T21:20:42.165Z,27.40
2023-03-18T21:23:31.406Z,27.40
2023-03-18T21:26:07.480Z,27.30
2023-03-18T21:28:37.515Z,27.30
2023-03-18T21:31:43.462Z,27.20
2023-03-18T21:36:56.800Z,27.10
2023-03-18T21:42:40.937Z,27.00
2023-03-18T21:53:53.210Z,26.80
2023-03-18T21:56:28.506Z,26.70
2023-03-18T21:59:13.657Z,26.70
2023-03-18T22:02:02.788Z,26.60
2023-03-18T22:04:38.170Z,26.60
2023-03-18T22:07:17.047Z,26.50
2023-03-18T22:09:46.849Z,26.50
2023-03-18T22:12:25.827Z,26.40
2023-03-18T22:14:56.155Z,26.40
2023-03-18T22:17:38.488Z,26.20
2023-03-18T22:20:08.801Z,26.20
2023-03-18T22:22:38.725Z,26.20
2023-03-18T22:25:09.512Z,26.10
2023-03-18T22:30:36.307Z,26.00
2023-03-18T22:33:09.040Z,26.00
2023-03-18T22:35:48.089Z,26.00
2023-03-18T22:41:21.597Z,25.90
2023-03-18T22:43:56.478Z,25.90
2023-03-18T22:52:22.675Z,25.80
2023-03-18T23:06:54.685Z,25.90
2023-03-18T23:12:13.208Z,25.90
2023-03-18T23:14:43.449Z,25.90
2023-03-18T23:17:22.957Z,25.90
2023-03-18T23:19:53.366Z,25.90
2023-03-18T23:28:12.663Z,25.90
2023-03-18T23:30:45.205Z,25.90
2023-03-18T23:33:15.001Z,25.90
2023-03-18T23:35:48.476Z,25.90
2023-03-18T23:41:00.797Z,25.90
2023-03-18T23:46:28.690Z,25.90
2023-03-18T23:51:55.829Z,25.80
